Time;durP1;ratioP1;P1;durP2;ratioP2;P2;SDS_P1;SDS_P2;PMS_P1;PMS_P2;Temp;Humidity;BMP_temperature;BMP_pressure;BME280_temperature;BME280_humidity;BME280_pressure;Samples;Min_cycle;Max_cycle;Signal;HPM_P1;HPM_P2
2022/03/30 00:01:17;;;;;;;31.50;25.43;;;11.70;1.00;;;;;;6207477;23;20130;-90
2022/03/30 00:03:43;;;;;;;35.53;26.33;;;11.70;1.00;;;;;;6183964;23;20165;-93
2022/03/30 00:06:12;;;;;;;35.20;25.20;;;11.60;1.00;;;;;;6210124;23;20169;-89
2022/03/30 00:08:42;;;;;;;32.93;27.17;;;11.60;1.00;;;;;;6199509;23;20138;-91
2022/03/30 00:11:10;;;;;;;34.17;25.90;;;11.60;1.00;;;;;;6164942;23;20146;-94
2022/03/30 00:13:36;;;;;;;28.43;23.97;;;11.50;1.00;;;;;;6196997;23;20201;-86
2022/03/30 00:16:03;;;;;;;33.83;25.27;;;11.70;1.00;;;;;;6176877;23;20206;-91
2022/03/30 00:18:31;;;;;;;36.20;26.67;;;11.60;1.00;;;;;;6207189;22;20188;-90
2022/03/30 00:20:56;;;;;;;35.27;26.60;;;11.50;1.00;;;;;;6209822;23;20201;-87
2022/03/30 00:23:26;;;;;;;33.70;26.47;;;11.50;1.00;;;;;;6177915;23;20192;-92
2022/03/30 00:25:55;;;;;;;32.30;25.63;;;11.50;1.00;;;;;;6192547;23;20181;-91
2022/03/30 00:28:20;;;;;;;32.73;25.17;;;11.50;1.00;;;;;;6194078;23;20489;-90
2022/03/30 00:30:48;;;;;;;35.17;25.43;;;11.40;1.00;;;;;;6195075;23;20142;-79
2022/03/30 00:33:14;;;;;;;33.93;25.50;;;11.40;1.00;;;;;;6192880;23;20567;-91
2022/03/30 00:35:41;;;;;;;34.00;26.30;;;11.30;1.00;;;;;;6168530;23;20145;-90
2022/03/30 00:38:07;;;;;;;35.43;27.00;;;11.20;1.00;;;;;;6196305;23;20142;-91
2022/03/30 00:40:32;;;;;;;35.17;26.10;;;11.20;1.00;;;;;;6198383;23;20632;-93
2022/03/30 00:42:58;;;;;;;34.13;25.90;;;11.20;1.00;;;;;;6200483;23;20488;-92
2022/03/30 00:45:24;;;;;;;33.10;24.37;;;11.20;1.00;;;;;;6201758;23;20205;-81
2022/03/30 00:47:52;;;;;;;34.43;25.10;;;11.20;1.00;;;;;;6177494;23;20137;-93
2022/03/30 00:50:19;;;;;;;33.30;24.30;;;11.00;1.00;;;;;;6205488;23;20544;-79
2022/03/30 00:52:50;;;;;;;34.00;24.17;;;11.00;1.00;;;;;;6210879;23;20136;-89
2022/03/30 00:55:19;;;;;;;34.67;23.60;;;11.00;1.00;;;;;;6205747;23;20134;-89
2022/03/30 00:57:47;;;;;;;35.27;24.83;;;10.90;1.00;;;;;;6211007;23;20130;-89
2022/03/30 01:00:15;;;;;;;34.33;24.00;;;10.90;1.00;;;;;;6184985;23;20142;-88
2022/03/30 01:02:45;;;;;;;33.33;25.63;;;10.90;1.00;;;;;;6184438;23;20161;-89
2022/03/30 01:05:13;;;;;;;36.53;26.23;;;10.90;1.00;;;;;;6207866;23;20181;-85
2022/03/30 01:07:39;;;;;;;31.10;24.83;;;10.90;1.00;;;;;;6186749;22;20157;-75
2022/03/30 01:10:09;;;;;;;30.37;22.73;;;10.90;1.00;;;;;;6212427;22;20193;-78
2022/03/30 01:12:38;;;;;;;30.40;22.13;;;10.80;1.00;;;;;;6186401;23;20165;-76
2022/03/30 01:15:08;;;;;;;31.97;21.67;;;10.70;1.00;;;;;;6209319;23;20138;-77
2022/03/30 01:17:52;;;;;;;31.10;22.27;;;10.70;1.00;;;;;;6208765;23;20164;-92
2022/03/30 01:20:21;;;;;;;32.30;23.50;;;10.60;1.00;;;;;;6206101;23;20138;-92
2022/03/30 01:22:49;;;;;;;32.63;22.63;;;10.60;1.00;;;;;;6201688;23;20114;-91
2022/03/30 01:25:16;;;;;;;31.67;23.30;;;10.60;1.00;;;;;;6197055;23;20187;-93
2022/03/30 01:27:41;;;;;;;31.80;23.00;;;10.60;1.00;;;;;;6197554;23;20189;-92
2022/03/30 01:33:06;;;;;;;32.57;23.53;;;10.50;1.00;;;;;;6199896;23;20149;-91
2022/03/30 01:35:40;;;;;;;35.47;23.83;;;10.40;1.00;;;;;;6190998;23;20205;-90
2022/03/30 01:38:11;;;;;;;30.80;22.70;;;10.40;1.00;;;;;;6195702;23;20209;-91
2022/03/30 01:40:44;;;;;;;30.77;22.13;;;10.40;1.00;;;;;;6193360;23;20138;-91
2022/03/30 01:43:10;;;;;;;31.30;23.40;;;10.40;1.00;;;;;;6201608;23;20174;-88
2022/03/30 01:45:35;;;;;;;35.70;22.63;;;10.40;1.00;;;;;;6195065;23;20626;-88
2022/03/30 01:48:01;;;;;;;30.50;21.53;;;10.40;1.00;;;;;;6192388;23;20209;-81
2022/03/30 01:50:29;;;;;;;30.03;22.67;;;10.30;1.00;;;;;;6191725;23;20563;-93
2022/03/30 01:52:56;;;;;;;35.53;24.20;;;10.20;1.00;;;;;;6168929;23;20147;-91
2022/03/30 01:55:22;;;;;;;32.60;22.83;;;10.20;1.00;;;;;;6195105;23;20138;-92
2022/03/30 01:57:48;;;;;;;32.00;24.53;;;10.10;1.00;;;;;;6191911;23;20221;-93
2022/03/30 02:00:17;;;;;;;33.33;23.83;;;10.10;1.00;;;;;;6203238;23;20158;-79
2022/03/30 02:02:43;;;;;;;33.53;23.10;;;10.10;1.00;;;;;;6211241;23;20138;-79
2022/03/30 02:05:10;;;;;;;33.17;23.50;;;10.00;1.00;;;;;;6212253;22;20161;-80
2022/03/30 02:07:37;;;;;;;32.90;23.37;;;10.00;1.00;;;;;;6212927;22;20138;-75
2022/03/30 02:10:05;;;;;;;32.60;23.27;;;10.00;1.00;;;;;;6187445;23;20138;-77
2022/03/30 02:12:31;;;;;;;34.00;24.53;;;10.00;1.00;;;;;;6212257;23;20167;-81
2022/03/30 02:14:57;;;;;;;34.23;23.07;;;9.90;1.00;;;;;;6211333;22;20138;-78
2022/03/30 02:17:35;;;;;;;32.37;22.93;;;9.90;1.00;;;;;;6207872;23;20563;-92
2022/03/30 02:20:05;;;;;;;33.13;24.17;;;10.00;1.00;;;;;;6192511;23;20206;-90
2022/03/30 02:22:31;;;;;;;33.17;22.90;;;10.00;1.00;;;;;;6193121;23;20137;-92
2022/03/30 02:24:59;;;;;;;31.60;23.80;;;10.00;1.00;;;;;;6193177;23;20170;-92
2022/03/30 02:27:31;;;;;;;32.83;23.60;;;9.90;1.00;;;;;;6192942;23;20164;-92
2022/03/30 02:29:58;;;;;;;37.53;25.70;;;10.00;1.00;;;;;;6209898;22;20146;-82
2022/03/30 02:32:24;;;;;;;34.60;23.97;;;10.00;1.00;;;;;;6214047;22;20181;-76
2022/03/30 02:34:52;;;;;;;35.83;24.80;;;9.90;1.00;;;;;;6211502;22;20471;-77
2022/03/30 02:40:40;;;;;;;34.17;23.23;;;9.80;1.00;;;;;;6203507;23;20170;-89
2022/03/30 02:43:06;;;;;;;33.27;23.47;;;9.80;1.00;;;;;;6207959;23;20146;-82
2022/03/30 02:45:34;;;;;;;35.67;24.13;;;9.60;1.00;;;;;;6209920;23;20169;-77
2022/03/30 02:48:18;;;;;;;32.23;21.83;;;9.50;1.00;;;;;;6212356;22;20137;-75
2022/03/30 02:50:52;;;;;;;37.33;24.07;;;9.50;1.00;;;;;;6185886;23;20150;-75
2022/03/30 02:53:22;;;;;;;34.30;24.20;;;9.50;1.00;;;;;;6212187;22;20152;-78
2022/03/30 02:55:48;;;;;;;34.33;23.57;;;9.50;1.00;;;;;;6210936;23;20166;-83
2022/03/30 02:58:16;;;;;;;31.20;22.97;;;9.60;1.00;;;;;;6210356;23;20118;-76
2022/03/30 03:00:43;;;;;;;33.30;23.70;;;9.60;1.00;;;;;;6211758;23;20145;-76
2022/03/30 03:03:10;;;;;;;35.73;24.33;;;9.50;1.00;;;;;;6185346;23;20150;-75
2022/03/30 03:05:38;;;;;;;37.40;25.20;;;9.50;1.00;;;;;;6185232;22;20178;-77
2022/03/30 03:08:10;;;;;;;37.67;23.40;;;9.50;1.00;;;;;;6208719;23;20134;-79
2022/03/30 03:10:38;;;;;;;32.30;23.33;;;9.50;1.00;;;;;;6183884;23;20146;-74
2022/03/30 03:13:04;;;;;;;35.13;22.83;;;9.50;1.00;;;;;;6208375;23;20170;-76
2022/03/30 03:15:52;;;;;;;35.13;24.30;;;9.40;1.00;;;;;;6205471;23;20145;-87
2022/03/30 03:21:41;;;;;;;35.93;24.57;;;9.40;1.00;;;;;;6205437;23;20189;-82
2022/03/30 03:24:38;;;;;;;33.90;23.37;;;9.50;1.00;;;;;;6209086;23;20162;-79
2022/03/30 03:27:06;;;;;;;33.20;21.80;;;9.40;1.00;;;;;;6209051;23;20172;-80
2022/03/30 03:29:34;;;;;;;32.07;23.00;;;9.30;1.00;;;;;;6206223;23;20152;-76
2022/03/30 03:32:04;;;;;;;33.17;24.23;;;9.40;1.00;;;;;;6209567;22;20138;-75
2022/03/30 03:34:29;;;;;;;31.47;22.13;;;9.30;1.00;;;;;;6207771;23;20145;-74
2022/03/30 03:36:56;;;;;;;30.57;21.63;;;9.40;1.00;;;;;;6184324;23;20146;-77
2022/03/30 03:39:25;;;;;;;31.73;23.33;;;9.40;1.00;;;;;;6206317;23;20571;-85
2022/03/30 03:42:23;;;;;;;34.43;22.30;;;9.50;1.00;;;;;;6200354;23;20145;-93
2022/03/30 03:45:42;;;;;;;36.60;23.50;;;9.40;1.00;;;;;;6167167;23;20153;-92
2022/03/30 03:48:36;;;;;;;30.77;21.67;;;9.30;1.00;;;;;;6192239;23;20161;-91
2022/03/30 03:51:10;;;;;;;34.80;21.93;;;9.20;1.00;;;;;;6193276;23;20205;-93
2022/03/30 03:53:36;;;;;;;32.67;23.57;;;9.10;1.00;;;;;;6195507;23;20140;-82
2022/03/30 03:56:03;;;;;;;36.67;23.80;;;9.10;1.00;;;;;;6207328;23;20134;-91
2022/03/30 03:58:29;;;;;;;35.27;22.83;;;9.10;1.00;;;;;;6194919;23;20157;-91
2022/03/30 04:00:55;;;;;;;34.73;23.73;;;9.00;1.00;;;;;;6171620;23;20639;-91
2022/03/30 04:03:29;;;;;;;36.20;24.20;;;9.00;1.00;;;;;;6195655;23;20150;-92
2022/03/30 04:05:55;;;;;;;35.37;22.97;;;9.10;1.00;;;;;;6197053;23;20176;-92
2022/03/30 04:08:21;;;;;;;35.23;23.57;;;9.10;1.00;;;;;;6198132;23;20563;-93
2022/03/30 04:10:48;;;;;;;43.63;25.77;;;9.10;1.00;;;;;;6202381;23;20207;-91
2022/03/30 04:13:14;;;;;;;33.43;22.40;;;9.10;1.00;;;;;;6202625;23;20614;-82
2022/03/30 04:15:40;;;;;;;36.10;23.70;;;9.10;1.00;;;;;;6207901;23;20125;-79
2022/03/30 04:18:07;;;;;;;34.67;23.50;;;9.10;1.00;;;;;;6208548;23;20115;-79
2022/03/30 04:20:33;;;;;;;37.67;23.23;;;9.10;1.00;;;;;;6212064;22;20184;-80
2022/03/30 04:23:00;;;;;;;34.63;22.77;;;9.00;1.00;;;;;;6203716;23;20142;-85
2022/03/30 04:25:26;;;;;;;32.53;23.00;;;9.00;1.00;;;;;;6199261;23;20178;-89
2022/03/30 04:27:53;;;;;;;39.93;24.27;;;9.10;1.00;;;;;;6201135;23;20134;-75
2022/03/30 04:31:09;;;;;;;35.33;23.53;;;9.10;1.00;;;;;;6205783;23;20161;-76
2022/03/30 04:33:36;;;;;;;37.07;22.33;;;9.10;1.00;;;;;;6210045;23;20150;-75
2022/03/30 04:36:17;;;;;;;34.33;21.83;;;9.10;1.00;;;;;;6208644;23;20145;-75
2022/03/30 04:38:43;;;;;;;35.83;21.73;;;9.10;1.00;;;;;;6200409;23;20138;-80
2022/03/30 04:41:08;;;;;;;31.27;21.13;;;9.00;1.00;;;;;;6200072;23;20141;-84
2022/03/30 04:43:37;;;;;;;33.53;20.90;;;9.00;1.00;;;;;;6205843;23;20650;-84
2022/03/30 04:46:08;;;;;;;34.30;21.70;;;8.90;1.00;;;;;;6190672;23;20174;-92
2022/03/30 04:48:41;;;;;;;31.43;22.83;;;8.90;1.00;;;;;;6193809;23;20134;-91
2022/03/30 04:51:10;;;;;;;28.53;20.30;;;8.90;1.00;;;;;;6172132;23;20150;-86
2022/03/30 04:53:36;;;;;;;33.83;21.73;;;8.90;1.00;;;;;;6204546;23;20130;-78
2022/03/30 04:56:02;;;;;;;38.10;23.13;;;8.90;1.00;;;;;;6209886;23;20149;-88
2022/03/30 04:58:27;;;;;;;31.53;20.83;;;8.80;1.00;;;;;;6208288;23;20150;-82
2022/03/30 05:00:56;;;;;;;36.43;23.23;;;8.70;1.00;;;;;;6201993;23;20154;-89
2022/03/30 05:03:23;;;;;;;41.10;23.47;;;8.70;1.00;;;;;;6201720;23;20164;-90
2022/03/30 05:05:49;;;;;;;33.13;21.10;;;8.70;1.00;;;;;;6201790;23;20227;-77
2022/03/30 05:08:18;;;;;;;33.17;21.67;;;8.70;1.00;;;;;;6202825;23;20161;-81
2022/03/30 05:10:54;;;;;;;37.53;22.03;;;8.70;1.00;;;;;;6207878;23;20149;-81
2022/03/30 05:13:20;;;;;;;33.77;22.30;;;8.60;1.00;;;;;;6207908;23;20162;-85
2022/03/30 05:15:48;;;;;;;38.30;21.27;;;8.60;1.00;;;;;;6202776;23;20228;-79
2022/03/30 05:18:41;;;;;;;40.47;19.97;;;8.60;1.00;;;;;;6193250;23;20161;-92
2022/03/30 05:21:07;;;;;;;38.97;22.13;;;8.60;1.00;;;;;;6191641;23;20176;-81
2022/03/30 05:23:36;;;;;;;40.70;21.83;;;8.50;1.00;;;;;;6191582;23;20137;-75
2022/03/30 05:26:03;;;;;;;32.67;21.67;;;8.50;1.00;;;;;;6164147;23;20185;-79
2022/03/30 05:28:29;;;;;;;39.13;21.97;;;8.50;1.00;;;;;;6165558;23;20177;-92
2022/03/30 05:30:55;;;;;;;33.90;21.00;;;8.50;1.00;;;;;;6197006;23;20595;-75
2022/03/30 05:33:21;;;;;;;36.33;22.60;;;8.50;1.00;;;;;;6208778;22;20155;-79
2022/03/30 05:35:48;;;;;;;36.87;20.77;;;8.50;1.00;;;;;;6203883;23;20138;-76
2022/03/30 05:38:14;;;;;;;35.90;22.03;;;8.40;1.00;;;;;;6201412;23;20178;-77
2022/03/30 05:40:42;;;;;;;33.13;20.60;;;8.40;1.00;;;;;;6201903;23;20122;-75
2022/03/30 05:43:13;;;;;;;33.67;23.03;;;8.40;2.20;;;;;;6203320;23;20130;-87
2022/03/30 05:45:43;;;;;;;36.37;22.47;;;8.40;4.00;;;;;;6173090;23;20189;-83
2022/03/30 05:48:16;;;;;;;35.43;22.13;;;8.30;5.80;;;;;;6194553;23;20687;-78
2022/03/30 05:51:00;;;;;;;38.17;21.33;;;8.40;5.10;;;;;;6194933;23;20145;-77
2022/03/30 05:53:48;;;;;;;33.10;21.87;;;8.40;7.60;;;;;;6190831;23;20134;-85
2022/03/30 05:56:16;;;;;;;40.13;23.33;;;8.40;7.90;;;;;;6190491;23;20133;-86
2022/03/30 05:58:41;;;;;;;38.23;21.57;;;8.50;5.80;;;;;;6164587;23;20212;-86
2022/03/30 06:01:07;;;;;;;46.10;22.63;;;8.50;5.40;;;;;;6195314;23;20138;-78
2022/03/30 06:03:37;;;;;;;37.10;21.63;;;8.50;7.20;;;;;;6192918;23;20477;-85
2022/03/30 06:06:05;;;;;;;38.50;22.03;;;8.40;1.80;;;;;;6188604;23;20516;-86
2022/03/30 06:08:32;;;;;;;32.37;21.93;;;8.40;7.30;;;;;;6187743;23;20204;-83
2022/03/30 06:10:57;;;;;;;35.70;22.70;;;8.30;7.00;;;;;;6187802;23;20173;-83
2022/03/30 06:13:23;;;;;;;37.50;23.00;;;8.30;12.10;;;;;;6188637;23;20176;-80
2022/03/30 06:15:52;;;;;;;40.50;21.30;;;8.30;11.80;;;;;;6163747;23;20236;-89
2022/03/30 06:18:29;;;;;;;33.20;21.63;;;8.30;10.40;;;;;;6189371;23;20134;-79
2022/03/30 06:20:55;;;;;;;40.10;23.00;;;8.30;8.10;;;;;;6189442;23;20614;-76
2022/03/30 06:23:21;;;;;;;37.83;23.33;;;8.40;7.10;;;;;;6188476;23;20145;-87
2022/03/30 06:25:46;;;;;;;44.90;23.53;;;8.30;4.00;;;;;;6187314;23;20497;-88
2022/03/30 06:28:12;;;;;;;35.57;22.70;;;8.50;2.00;;;;;;6192531;23;20532;-79
2022/03/30 06:30:38;;;;;;;32.93;22.63;;;8.50;1.00;;;;;;6183006;23;20152;-78
2022/03/30 06:33:04;;;;;;;41.30;24.67;;;8.50;1.00;;;;;;6199827;23;20160;-77
2022/03/30 06:35:30;;;;;;;34.77;21.43;;;8.50;1.00;;;;;;6169354;23;20146;-88
2022/03/30 06:37:58;;;;;;;36.27;22.50;;;8.50;1.00;;;;;;6194109;23;20169;-88
2022/03/30 06:40:27;;;;;;;35.83;24.40;;;8.50;1.00;;;;;;6190652;23;20161;-86
2022/03/30 06:42:54;;;;;;;36.93;24.53;;;8.60;1.00;;;;;;6189040;23;20149;-82
2022/03/30 06:45:20;;;;;;;37.00;24.33;;;8.60;1.00;;;;;;6192108;23;20178;-88
2022/03/30 06:47:45;;;;;;;40.33;24.30;;;8.70;1.00;;;;;;6188895;23;20148;-77
2022/03/30 06:50:13;;;;;;;36.47;23.37;;;8.80;1.00;;;;;;6188944;23;20642;-88
2022/03/30 06:52:40;;;;;;;36.97;23.63;;;8.70;1.00;;;;;;6163849;23;20211;-79
2022/03/30 06:55:07;;;;;;;35.20;22.73;;;8.80;1.00;;;;;;6189216;23;20130;-82
2022/03/30 06:57:33;;;;;;;36.47;23.30;;;8.80;1.00;;;;;;6191478;23;20149;-78
2022/03/30 06:59:59;;;;;;;34.10;22.97;;;8.80;1.00;;;;;;6191406;23;20149;-91
2022/03/30 07:02:24;;;;;;;40.87;23.67;;;8.80;1.00;;;;;;6194713;23;20181;-91
2022/03/30 07:04:50;;;;;;;34.37;22.13;;;8.80;1.00;;;;;;6198615;23;20196;-80
2022/03/30 07:10:15;;;;;;;36.83;23.27;;;8.70;1.00;;;;;;6193680;23;20173;-78
2022/03/30 07:12:48;;;;;;;40.77;22.70;;;8.80;1.00;;;;;;6196423;23;20136;-79
2022/03/30 07:15:16;;;;;;;36.20;22.97;;;8.90;1.00;;;;;;6194265;23;20134;-90
2022/03/30 07:17:50;;;;;;;36.40;24.30;;;8.80;1.00;;;;;;6204736;23;20133;-78
2022/03/30 07:20:20;;;;;;;43.60;23.63;;;8.80;1.00;;;;;;6181823;23;20205;-78
2022/03/30 07:22:50;;;;;;;39.93;24.37;;;8.80;1.00;;;;;;6178441;23;20200;-81
2022/03/30 07:25:20;;;;;;;39.97;23.50;;;8.80;1.00;;;;;;6171743;23;20247;-85
2022/03/30 07:27:48;;;;;;;35.60;22.90;;;8.90;1.00;;;;;;6190190;23;20138;-82
2022/03/30 07:30:16;;;;;;;35.27;22.33;;;9.00;1.00;;;;;;6164194;23;20165;-89
2022/03/30 07:32:45;;;;;;;35.00;22.37;;;9.00;1.00;;;;;;6191708;23;20586;-89
2022/03/30 07:35:13;;;;;;;38.93;22.37;;;9.10;1.00;;;;;;6177843;23;20149;-76
2022/03/30 07:37:40;;;;;;;34.80;21.20;;;9.10;1.00;;;;;;6204308;23;20197;-83
2022/03/30 07:40:08;;;;;;;34.27;23.47;;;9.10;1.00;;;;;;6201827;23;20196;-90
2022/03/30 07:42:34;;;;;;;35.37;21.23;;;9.30;1.00;;;;;;6194813;23;20150;-87
2022/03/30 07:45:01;;;;;;;38.53;20.60;;;9.30;1.00;;;;;;6140698;23;20178;-85
2022/03/30 07:47:29;;;;;;;37.83;22.00;;;9.30;1.00;;;;;;6197406;23;20233;-88
2022/03/30 07:50:19;;;;;;;34.27;21.00;;;9.20;1.00;;;;;;6200142;23;20149;-81
2022/03/30 07:52:46;;;;;;;35.40;21.27;;;9.20;1.00;;;;;;6201301;23;20637;-88
2022/03/30 07:55:14;;;;;;;35.67;20.63;;;9.20;1.00;;;;;;6206261;23;20138;-85
2022/03/30 07:57:42;;;;;;;34.57;20.70;;;9.30;1.00;;;;;;6196533;23;20217;-81
2022/03/30 08:00:10;;;;;;;38.43;20.20;;;9.30;1.00;;;;;;6192978;23;20161;-77
2022/03/30 08:05:46;;;;;;;32.90;19.13;;;9.50;1.00;;;;;;6189091;23;20276;-84
2022/03/30 08:08:18;;;;;;;34.87;20.50;;;9.60;1.00;;;;;;6190086;23;20145;-92
2022/03/30 08:10:46;;;;;;;31.93;19.37;;;9.70;1.00;;;;;;6203767;23;20150;-77
2022/03/30 08:13:12;;;;;;;34.57;19.50;;;9.70;1.00;;;;;;6198417;23;20166;-86
2022/03/30 08:15:39;;;;;;;29.90;19.23;;;9.60;1.00;;;;;;6192328;23;20261;-82
2022/03/30 08:18:11;;;;;;;35.33;19.60;;;9.60;1.00;;;;;;6191045;23;20237;-84
2022/03/30 08:23:23;;;;;;;29.67;17.60;;;9.50;1.00;;;;;;6191209;23;20173;-93
2022/03/30 08:25:52;;;;;;;31.53;18.73;;;9.40;1.00;;;;;;6170083;23;20213;-88
2022/03/30 08:28:17;;;;;;;26.77;17.50;;;9.50;1.00;;;;;;6171666;23;20165;-76
2022/03/30 08:30:45;;;;;;;28.43;17.77;;;9.50;1.00;;;;;;6201876;23;20137;-87
2022/03/30 08:33:50;;;;;;;24.63;17.40;;;9.50;1.00;;;;;;6201947;23;20134;-78
2022/03/30 08:36:20;;;;;;;27.97;17.03;;;9.50;1.00;;;;;;6204941;23;20134;-76
2022/03/30 08:38:46;;;;;;;28.93;18.33;;;9.60;1.00;;;;;;6204600;23;20145;-77
2022/03/30 08:41:16;;;;;;;31.27;18.00;;;9.80;1.00;;;;;;6206181;22;20138;-84
2022/03/30 08:43:42;;;;;;;26.47;17.50;;;9.90;1.00;;;;;;6183653;23;20142;-76
2022/03/30 08:46:09;;;;;;;28.20;17.50;;;10.00;1.00;;;;;;6203656;23;20556;-76
2022/03/30 08:48:41;;;;;;;28.57;17.67;;;10.20;1.00;;;;;;6207495;23;20141;-81
2022/03/30 08:51:10;;;;;;;31.03;17.60;;;10.40;1.00;;;;;;6204118;23;20142;-75
2022/03/30 08:57:02;;;;;;;28.93;16.83;;;10.40;99.90;;;;;;6206185;23;20138;-77
2022/03/30 08:59:57;;;;;;;30.03;17.90;;;10.40;99.90;;;;;;6179706;23;20156;-77
2022/03/30 09:02:46;;;;;;;29.57;17.33;;;10.50;99.90;;;;;;6209338;22;20165;-76
2022/03/30 09:05:21;;;;;;;29.70;16.17;;;10.40;99.90;;;;;;6210868;23;20176;-76
2022/03/30 09:08:07;;;;;;;28.87;16.50;;;10.40;99.90;;;;;;6207351;22;20141;-76
2022/03/30 09:10:40;;;;;;;27.10;17.37;;;10.30;1.00;;;;;;6206133;23;20160;-78
2022/03/30 09:23:14;;;;;;;30.37;17.83;;;10.40;99.90;;;;;;6192505;23;20172;-78
2022/03/30 09:29:05;;;;;;;25.77;16.33;;;10.50;99.90;;;;;;6197925;23;20196;-93
2022/03/30 09:31:42;;;;;;;26.13;16.83;;;10.60;99.90;;;;;;6200487;23;20138;-77
2022/03/30 09:34:12;;;;;;;31.50;16.50;;;10.70;99.90;;;;;;6176364;23;20161;-80
2022/03/30 09:36:40;;;;;;;29.30;17.73;;;10.70;99.90;;;;;;6205485;23;20169;-92
2022/03/30 09:39:29;;;;;;;26.73;18.57;;;10.70;99.90;;;;;;6206504;23;20166;-76
2022/03/30 09:42:03;;;;;;;23.13;16.00;;;10.80;99.90;;;;;;6205378;23;20161;-76
2022/03/30 09:44:30;;;;;;;26.17;16.10;;;11.00;99.90;;;;;;6208333;23;20125;-77
2022/03/30 09:47:10;;;;;;;26.13;17.67;;;10.90;99.90;;;;;;6208872;23;20233;-83
2022/03/30 09:53:18;;;;;;;27.33;16.90;;;11.00;99.90;;;;;;6200347;23;20144;-78
2022/03/30 09:56:08;;;;;;;24.80;16.03;;;11.00;99.90;;;;;;6202739;23;20567;-81
2022/03/30 09:58:36;;;;;;;26.87;16.10;;;11.10;99.90;;;;;;6201338;23;20141;-77
2022/03/30 10:01:19;;;;;;;28.50;16.63;;;11.10;99.90;;;;;;6202049;23;20465;-76
2022/03/30 10:04:00;;;;;;;24.47;16.50;;;11.10;99.90;;;;;;6203749;23;20563;-76
2022/03/30 10:06:35;;;;;;;24.00;15.67;;;11.20;1.00;;;;;;6201951;23;20188;-76
2022/03/30 10:09:32;;;;;;;22.73;15.27;;;11.40;1.00;;;;;;6198297;23;20149;-77
2022/03/30 10:12:15;;;;;;;29.63;16.60;;;11.40;1.00;;;;;;6200889;23;20118;-76
2022/03/30 10:15:27;;;;;;;21.57;14.03;;;11.50;1.00;;;;;;6201069;23;20168;-77
2022/03/30 10:18:11;;;;;;;21.27;15.13;;;11.40;99.90;;;;;;6198859;23;20138;-77
2022/03/30 10:20:37;;;;;;;25.33;15.73;;;11.60;1.00;;;;;;6173325;23;20224;-77
2022/03/30 10:26:33;;;;;;;34.20;15.23;;;12.00;88.20;;;;;;6192913;23;20217;-91
2022/03/30 10:29:09;;;;;;;23.13;13.83;;;11.90;92.20;;;;;;6198998;23;20157;-75
2022/03/30 10:31:35;;;;;;;22.20;14.80;;;11.90;24.10;;;;;;6199574;23;20172;-77
2022/03/30 10:34:25;;;;;;;24.30;14.83;;;11.90;99.90;;;;;;6171395;23;20146;-89
2022/03/30 10:37:11;;;;;;;22.70;14.43;;;11.80;1.00;;;;;;6197533;23;20156;-91
2022/03/30 10:40:04;;;;;;;24.13;12.37;;;11.90;1.00;;;;;;6177725;23;20142;-77
2022/03/30 10:42:54;;;;;;;17.37;12.13;;;11.70;1.00;;;;;;6204904;23;20150;-77
2022/03/30 10:45:29;;;;;;;18.80;11.13;;;11.60;1.00;;;;;;6201773;23;20241;-79
2022/03/30 10:48:13;;;;;;;17.20;12.03;;;11.80;99.90;;;;;;6202995;23;20586;-80
2022/03/30 10:50:56;;;;;;;20.90;14.27;;;11.70;1.00;;;;;;6198618;23;20224;-78
2022/03/30 10:53:31;;;;;;;19.07;13.13;;;11.80;1.00;;;;;;6200838;23;20149;-75
2022/03/30 10:56:15;;;;;;;18.33;13.27;;;11.90;99.90;;;;;;6200307;23;20144;-83
2022/03/30 10:58:55;;;;;;;25.67;12.30;;;11.90;1.00;;;;;;6193056;23;20137;-76
2022/03/30 11:01:35;;;;;;;18.73;12.90;;;11.90;99.90;;;;;;6197226;23;20133;-77
2022/03/30 11:04:05;;;;;;;20.40;13.70;;;12.00;99.90;;;;;;6194661;23;20192;-78
2022/03/30 11:06:53;;;;;;;20.17;13.00;;;12.10;1.00;;;;;;6196857;23;20169;-92
2022/03/30 11:09:23;;;;;;;17.43;13.07;;;12.20;99.90;;;;;;6197632;23;20134;-81
2022/03/30 11:12:00;;;;;;;24.07;14.50;;;12.30;99.90;;;;;;6193248;23;20134;-77
2022/03/30 11:14:39;;;;;;;20.47;13.03;;;12.20;1.00;;;;;;6197274;23;20161;-76
2022/03/30 11:17:40;;;;;;;17.57;13.47;;;12.00;99.90;;;;;;6195924;23;20165;-83
2022/03/30 11:20:26;;;;;;;19.97;13.00;;;12.10;99.90;;;;;;6200037;23;20149;-80
2022/03/30 11:23:19;;;;;;;20.37;13.53;;;12.10;1.00;;;;;;6191102;23;20160;-79
2022/03/30 11:25:56;;;;;;;30.00;15.37;;;12.10;1.00;;;;;;6174988;23;20173;-77
2022/03/30 11:28:37;;;;;;;24.23;15.20;;;12.20;1.00;;;;;;6171530;23;20149;-77
2022/03/30 11:31:17;;;;;;;18.90;13.77;;;12.30;1.00;;;;;;6176376;23;20161;-79
2022/03/30 11:34:21;;;;;;;19.73;13.23;;;12.20;99.90;;;;;;6205305;23;20138;-76
2022/03/30 11:36:47;;;;;;;24.23;15.00;;;12.30;99.90;;;;;;6199052;22;20133;-76
2022/03/30 11:39:14;;;;;;;18.93;13.83;;;12.30;1.00;;;;;;6194450;23;20142;-81
2022/03/30 11:41:40;;;;;;;22.90;14.07;;;12.40;99.90;;;;;;6192558;23;20146;-78
2022/03/30 11:47:00;;;;;;;22.17;14.13;;;12.40;99.90;;;;;;6192002;23;20319;-78
2022/03/30 11:49:26;;;;;;;20.00;13.43;;;12.30;34.80;;;;;;6192647;23;20141;-80
2022/03/30 11:52:15;;;;;;;20.87;13.30;;;12.40;99.90;;;;;;6190429;23;20483;-86
2022/03/30 11:54:52;;;;;;;18.83;13.03;;;12.20;1.00;;;;;;6194693;23;20140;-90
2022/03/30 11:57:21;;;;;;;18.77;13.03;;;12.00;1.00;;;;;;6195682;23;20207;-76
2022/03/30 11:59:57;;;;;;;20.60;12.90;;;12.00;99.90;;;;;;6172235;23;20149;-90
2022/03/30 12:02:25;;;;;;;22.80;14.07;;;12.10;1.00;;;;;;6151874;23;20232;-91
2022/03/30 12:04:52;;;;;;;21.77;13.27;;;12.20;1.00;;;;;;6192833;23;20130;-86
2022/03/30 12:07:21;;;;;;;20.00;13.27;;;12.40;99.90;;;;;;6160103;23;20211;-79
2022/03/30 12:09:53;;;;;;;23.17;12.30;;;12.50;1.00;;;;;;6190250;23;20150;-79
2022/03/30 12:12:35;;;;;;;20.10;12.40;;;12.20;1.00;;;;;;6120391;23;20161;-90
2022/03/30 12:15:11;;;;;;;18.33;13.23;;;12.10;1.00;;;;;;6200354;23;20137;-88
2022/03/30 12:17:37;;;;;;;21.43;13.80;;;12.20;1.00;;;;;;6175671;23;20145;-78
2022/03/30 12:20:06;;;;;;;20.53;13.77;;;12.20;1.00;;;;;;6169581;23;20145;-79
2022/03/30 12:22:34;;;;;;;21.63;13.67;;;12.20;15.70;;;;;;6193505;23;20145;-85
2022/03/30 12:25:18;;;;;;;20.50;13.63;;;12.30;22.70;;;;;;6190736;23;20202;-86
2022/03/30 12:27:45;;;;;;;21.30;13.30;;;12.40;90.20;;;;;;6165827;23;20181;-88
2022/03/30 12:30:11;;;;;;;20.03;12.87;;;12.20;99.90;;;;;;6193534;23;20158;-86
2022/03/30 12:32:38;;;;;;;22.37;13.97;;;12.10;99.90;;;;;;6201562;23;20138;-81
2022/03/30 12:35:10;;;;;;;18.50;12.73;;;12.00;83.60;;;;;;6205104;23;20245;-77
2022/03/30 12:37:36;;;;;;;24.77;14.17;;;12.10;1.00;;;;;;6203453;23;20152;-79
2022/03/30 12:40:11;;;;;;;24.73;14.33;;;12.10;98.90;;;;;;6203662;23;20145;-79
2022/03/30 12:42:48;;;;;;;19.40;14.10;;;12.10;99.90;;;;;;6199748;23;20141;-79
2022/03/30 12:45:18;;;;;;;24.10;14.87;;;12.20;1.00;;;;;;6169817;23;20481;-81
2022/03/30 12:47:56;;;;;;;21.80;13.80;;;12.30;1.00;;;;;;6195225;23;20579;-78
2022/03/30 12:50:30;;;;;;;19.33;13.33;;;12.40;99.90;;;;;;6191459;23;20129;-83
2022/03/30 12:53:05;;;;;;;20.73;13.83;;;12.40;99.90;;;;;;6194846;23;20192;-90
2022/03/30 12:55:34;;;;;;;23.37;15.87;;;12.30;1.00;;;;;;6190996;23;20140;-77
2022/03/30 12:58:08;;;;;;;30.10;16.07;;;12.40;1.00;;;;;;6192360;23;20138;-83
2022/03/30 13:00:41;;;;;;;19.10;14.10;;;12.50;99.90;;;;;;6194380;23;20138;-90
2022/03/30 13:03:18;;;;;;;23.50;14.47;;;12.50;1.00;;;;;;6196420;23;20192;-85
2022/03/30 13:05:46;;;;;;;20.90;14.33;;;12.40;1.00;;;;;;6195314;23;20188;-81
2022/03/30 13:08:16;;;;;;;25.00;15.37;;;12.40;1.00;;;;;;6195588;23;20157;-90
2022/03/30 13:11:02;;;;;;;23.00;15.20;;;12.40;99.90;;;;;;6195130;23;20152;-88
2022/03/30 13:13:33;;;;;;;22.80;15.47;;;12.50;1.00;;;;;;6193398;23;20252;-90
2022/03/30 13:16:11;;;;;;;19.17;13.93;;;12.60;99.90;;;;;;6201686;23;20137;-85
2022/03/30 13:18:39;;;;;;;24.43;15.00;;;12.50;1.00;;;;;;6200711;23;20161;-79
2022/03/30 13:21:11;;;;;;;19.93;13.77;;;12.70;1.00;;;;;;6204382;23;20143;-80
2022/03/30 13:23:47;;;;;;;18.73;13.03;;;12.70;1.00;;;;;;6182046;23;20143;-77
2022/03/30 13:26:35;;;;;;;18.77;12.83;;;13.00;1.00;;;;;;6199092;23;20174;-77
2022/03/30 13:29:03;;;;;;;21.70;14.00;;;13.10;30.30;;;;;;6198304;23;20153;-79
2022/03/30 13:31:30;;;;;;;17.37;12.23;;;13.20;1.00;;;;;;6195110;23;20215;-88
2022/03/30 13:33:59;;;;;;;23.83;13.50;;;13.20;99.90;;;;;;6198138;23;20142;-76
2022/03/30 13:36:31;;;;;;;19.43;13.10;;;13.30;64.40;;;;;;6202710;23;20145;-84
2022/03/30 13:39:00;;;;;;;20.23;12.87;;;13.20;1.00;;;;;;6200743;23;20196;-89
2022/03/30 13:41:31;;;;;;;18.30;13.20;;;13.20;1.00;;;;;;6201532;23;20153;-85
2022/03/30 13:43:57;;;;;;;20.07;13.23;;;12.80;99.90;;;;;;6198049;23;20165;-78
2022/03/30 13:46:25;;;;;;;19.27;12.93;;;12.70;99.90;;;;;;6203955;23;20174;-77
2022/03/30 13:48:51;;;;;;;17.53;13.37;;;12.90;99.90;;;;;;6207260;23;20173;-79